For water level readings from Victoria harbour, visit our Tides page.

DISCLAIMER: Although GVHA takes care to produce accurate readings from Ogden Point, the weather information on this site is raw data fed directly from sensors. It does not go through the same quality control processes used by professional weather services, and should not be relied on as a sole source of weather information for Victoria harbour.

In-depth weather values from Victoria Harbour can be found on the Environment Canada website.

Location: Ogden Point Breakwater

Current time: Aug 5, 2020 11:12 AM GMT | Aug 5, 2020 4:12 AM

Last Hour Last 3 Hours Last 6 Hours Last 12 Hours
Time Peak Wind Speed Avg Speed Avg Direction Avg Air Temp Avg Dew Point Avg Humidity
Aug 5, 2020 04:10 AM 17.1 knots 16.2 knots 208° True 13.7° C / 57.4° F 10.4° C / 50.8° F 80.2%
Aug 5, 2020 04:00 AM 16.8 knots 15.7 knots 210° True 13.6° C / 57.2° F 10.4° C / 50.8° F 80.7%
Aug 5, 2020 03:50 AM 16.5 knots 12.4 knots 217° True 13.3° C / 56.6° F 10.4° C / 50.8° F 82.8%
Aug 5, 2020 03:40 AM 15.8 knots 13.5 knots 217° True 13.6° C / 57.2° F 10.3° C / 50.6° F 80.7%
Aug 5, 2020 03:30 AM 15.8 knots 14 knots 216° True 13.4° C / 56.8° F 10.4° C / 50.8° F 82%
Aug 5, 2020 03:20 AM 17.2 knots 15.3 knots 212° True 13.6° C / 57.2° F 10.5° C / 51° F 81.2%
Aug 5, 2020 03:10 AM 16.8 knots 15 knots 206° True 13.9° C / 57.8° F 10.5° C / 51° F 80%
Aug 5, 2020 03:00 AM 16.7 knots 14.7 knots 202° True 14.1° C / 58.2° F 10.4° C / 50.8° F 78.4%
Aug 5, 2020 02:50 AM 17.6 knots 16.2 knots 199° True 14° C / 58° F 10.2° C / 50.4° F 78.1%
Aug 5, 2020 02:40 AM 17.1 knots 14.8 knots 191° True 14° C / 58° F 10.3° C / 50.6° F 78.5%
Aug 5, 2020 02:30 AM 18.3 knots 16.4 knots 201° True 14.4° C / 58.8° F 10.4° C / 50.8° F 76.7%
Aug 5, 2020 02:20 AM 18 knots 16.8 knots 198° True 14.5° C / 59° F 10.3° C / 50.6° F 75.7%
Aug 5, 2020 02:10 AM 18.1 knots 16.8 knots 194° True 14.5° C / 59° F 10.3° C / 50.6° F 75.7%
Aug 5, 2020 02:00 AM 17 knots 15.4 knots 194° True 14.5° C / 59° F 10.2° C / 50.4° F 75.3%
Aug 5, 2020 01:50 AM 15.7 knots 14.8 knots 199° True 14.5° C / 59° F 10.2° C / 50.4° F 75.5%
Aug 5, 2020 01:40 AM 15.7 knots 14.4 knots 197° True 14.5° C / 59° F 10.3° C / 50.6° F 75.9%
Aug 5, 2020 01:30 AM 16.2 knots 15.1 knots 199° True 14.5° C / 59° F 10.3° C / 50.6° F 75.9%
Aug 5, 2020 01:20 AM 15.6 knots 14.5 knots 199° True 14.5° C / 59° F 10.3° C / 50.6° F 76%
Aug 5, 2020 01:10 AM 15.6 knots 14.2 knots 199° True 14.6° C / 59.2° F 10.3° C / 50.6° F 75.1%
Aug 5, 2020 01:00 AM 16.2 knots 14.9 knots 199° True 14.5° C / 59° F 10.3° C / 50.6° F 75.8%
Aug 5, 2020 12:50 AM 15.2 knots 14.3 knots 199° True 14.7° C / 59.4° F 10.4° C / 50.8° F 75.3%
Aug 5, 2020 12:40 AM 16.4 knots 15.1 knots 201° True 14.9° C / 59.8° F 10.5° C / 51° F 74.6%
Aug 5, 2020 12:30 AM 17.1 knots 16.2 knots 201° True 15.2° C / 60.4° F 10.5° C / 51° F 73.4%
Aug 5, 2020 12:20 AM 17.5 knots 16.2 knots 202° True 15.3° C / 60.6° F 10.5° C / 51° F 73.1%
Aug 5, 2020 12:10 AM 18.9 knots 18 knots 205° True 15.3° C / 60.6° F 10.5° C / 51° F 73%
Aug 5, 2020 12:00 AM 18 knots 16 knots 203° True 15.2° C / 60.4° F 10.5° C / 51° F 73.3%
Aug 4, 2020 11:50 PM 17.4 knots 15.8 knots 200° True 15.2° C / 60.4° F 10.5° C / 51° F 73.1%
Aug 4, 2020 11:40 PM 16.8 knots 15.1 knots 198° True 15.3° C / 60.6° F 10.5° C / 51° F 73%
Aug 4, 2020 11:30 PM 18.2 knots 16.2 knots 199° True 15.7° C / 61.4° F 10.6° C / 51.2° F 71.5%
Aug 4, 2020 11:20 PM 17.9 knots 16.9 knots 199° True 16° C / 62° F 10.7° C / 51.4° F 70.6%
Aug 4, 2020 11:10 PM 17.3 knots 16.1 knots 200° True 16° C / 62° F 10.7° C / 51.4° F 70.6%
Aug 4, 2020 11:00 PM 17 knots 16 knots 199° True 16.1° C / 62.2° F 10.6° C / 51.2° F 69.8%
Aug 4, 2020 10:50 PM 16.6 knots 15.3 knots 200° True 16.1° C / 62.2° F 10.6° C / 51.2° F 69.9%
Aug 4, 2020 10:40 PM 16.7 knots 15.7 knots 202° True 16.1° C / 62.2° F 10.6° C / 51.2° F 69.7%
Aug 4, 2020 10:30 PM 16.5 knots 15.7 knots 201° True 16.3° C / 62.6° F 10.6° C / 51.2° F 68.6%
Aug 4, 2020 10:20 PM 16.7 knots 15.5 knots 201° True 16.6° C / 63.2° F 10.6° C / 51.2° F 67.8%
Aug 4, 2020 10:10 PM 17.5 knots 16.4 knots 204° True 17° C / 64° F 10.5° C / 51° F 65.9%
Aug 4, 2020 10:00 PM 17.3 knots 16.1 knots 205° True 17.2° C / 64.4° F 10.7° C / 51.4° F 65.5%
Aug 4, 2020 09:50 PM 17.1 knots 16 knots 203° True 17.7° C / 65.4° F 10.7° C / 51.4° F 63.6%
Aug 4, 2020 09:40 PM 16.5 knots 15.4 knots 203° True 17.8° C / 65.6° F 10.7° C / 51.4° F 62.9%
Aug 4, 2020 09:30 PM 17.3 knots 15.4 knots 202° True 18° C / 66° F 10.6° C / 51.2° F 61.8%
Aug 4, 2020 09:20 PM 16 knots 14 knots 200° True 17.2° C / 64.4° F 10.4° C / 50.8° F 64.3%
Aug 4, 2020 09:10 PM 14.2 knots 12.7 knots 191° True 17.5° C / 65° F 10.5° C / 51° F 63.6%
Aug 4, 2020 09:00 PM 14 knots 13.2 knots 191° True 18° C / 66° F 10.4° C / 50.8° F 61.2%
Aug 4, 2020 08:50 PM 14 knots 12.5 knots 187° True 17.4° C / 64.8° F 10.1° C / 50.2° F 62.5%
Aug 4, 2020 08:40 PM 12.2 knots 8.2 knots 181° True 15.5° C / 61° F 10.1° C / 50.2° F 70.4%
Aug 4, 2020 08:30 PM 7.4 knots 5.4 knots 174° True 15° C / 60° F 10.2° C / 50.4° F 73%
Aug 4, 2020 08:20 PM 5.7 knots 3.1 knots 146° True 15.2° C / 60.4° F 10.3° C / 50.6° F 72.6%
Aug 4, 2020 08:10 PM 10 knots 4.5 knots 163° True 15.8° C / 61.6° F 10.3° C / 50.6° F 69.7%
Aug 4, 2020 08:00 PM 12.4 knots 6.9 knots 177° True 14.5° C / 59° F 10.2° C / 50.4° F 75.8%
Aug 4, 2020 07:50 PM 6.4 knots 4 knots 126° True 13.2° C / 56.4° F 10.5° C / 51° F 83.9%
Aug 4, 2020 07:40 PM 7.7 knots 4.8 knots 90° True 12.9° C / 55.8° F 10.6° C / 51.2° F 85.8%
Aug 4, 2020 07:30 PM 6.1 knots 4.4 knots 79° True 12.8° C / 55.6° F 10.6° C / 51.2° F 86.7%
Aug 4, 2020 07:20 PM 14.1 knots 8.4 knots 167° True 12.9° C / 55.8° F 10.5° C / 51° F 85.8%
Aug 4, 2020 07:10 PM 15.2 knots 14.2 knots 173° True 12.7° C / 55.4° F 10.6° C / 51.2° F 86.8%
Aug 4, 2020 07:00 PM 16.8 knots 15.3 knots 174° True 12.8° C / 55.6° F 10.6° C / 51.2° F 86.4%
Aug 4, 2020 06:50 PM 16.9 knots 15.7 knots 177° True 13.2° C / 56.4° F 10.7° C / 51.4° F 85.3%
Aug 4, 2020 06:40 PM 15.9 knots 14.8 knots 179° True 13.5° C / 57° F 10.9° C / 51.8° F 84.5%
Aug 4, 2020 06:30 PM 15.5 knots 14.4 knots 180° True 14.2° C / 58.4° F 11.2° C / 52.4° F 82.1%
Aug 4, 2020 06:20 PM 15.4 knots 14.6 knots 179° True 15° C / 60° F 11.4° C / 52.8° F 79%
Aug 4, 2020 06:10 PM 15.6 knots 14.8 knots 182° True 15.4° C / 60.8° F 11.6° C / 53.2° F 78%
Aug 4, 2020 06:00 PM 16.5 knots 14.9 knots 182° True 15.7° C / 61.4° F 11.8° C / 53.6° F 77.4%
Aug 4, 2020 05:50 PM 17.8 knots 16.4 knots 187° True 16.3° C / 62.6° F 11.9° C / 53.8° F 75.3%
Aug 4, 2020 05:40 PM 17.8 knots 16.9 knots 189° True 15.9° C / 61.8° F 11.9° C / 53.8° F 76.9%
Aug 4, 2020 05:30 PM 18.3 knots 15.7 knots 187° True 15.4° C / 60.8° F 11.8° C / 53.6° F 79.2%
Aug 4, 2020 05:20 PM 16.5 knots 14.7 knots 183° True 15.5° C / 61° F 11.9° C / 53.8° F 79%
Aug 4, 2020 05:10 PM 17.1 knots 16.1 knots 184° True 15.5° C / 61° F 11.9° C / 53.8° F 79.2%
Aug 4, 2020 05:00 PM 17.8 knots 16.3 knots 185° True 15.4° C / 60.8° F 11.9° C / 53.8° F 79.7%
Aug 4, 2020 04:50 PM 17 knots 15.6 knots 184° True 14.9° C / 59.8° F 11.8° C / 53.6° F 81.6%
Aug 4, 2020 04:40 PM 15.4 knots 11.8 knots 183° True 13.8° C / 57.6° F 11.5° C / 53° F 86%
Aug 4, 2020 04:30 PM 7.2 knots 3 knots 170° True 13.5° C / 57° F 11.4° C / 52.8° F 87.2%
Aug 4, 2020 04:20 PM 5.8 knots 3.5 knots 95° True 13.6° C / 57.2° F 11.5° C / 53° F 87.1%